createdAt,value
2019-01-30T00:00:00.498Z,30.00
2019-01-30T00:01:00.509Z,24.10
2019-01-30T00:02:00.518Z,21.50
2019-01-30T00:03:00.527Z,25.30
2019-01-30T00:04:00.535Z,32.00
2019-01-30T00:05:00.547Z,25.00
2019-01-30T00:06:00.555Z,22.90
2019-01-30T00:07:00.564Z,24.20
2019-01-30T00:08:00.576Z,26.10
2019-01-30T00:09:00.583Z,25.80
2019-01-30T00:10:00.592Z,26.50
2019-01-30T00:11:00.602Z,35.60
2019-01-30T00:12:00.613Z,27.10
2019-01-30T00:13:00.621Z,28.40
2019-01-30T00:14:00.632Z,24.30
2019-01-30T00:15:00.635Z,24.60
2019-01-30T00:16:00.646Z,27.30
2019-01-30T00:17:00.656Z,24.50
2019-01-30T00:18:00.663Z,26.70
2019-01-30T00:19:00.674Z,29.80
2019-01-30T00:20:00.685Z,25.60
2019-01-30T00:21:00.692Z,30.00
2019-01-30T00:22:00.699Z,25.00
2019-01-30T00:23:00.712Z,25.70
2019-01-30T00:24:00.721Z,33.60
2019-01-30T00:25:00.730Z,26.50
2019-01-30T00:26:00.736Z,31.10
2019-01-30T00:27:00.746Z,27.90
2019-01-30T00:28:00.755Z,27.70
2019-01-30T00:29:00.766Z,26.40
2019-01-30T00:30:04.142Z,27.20
2019-01-30T00:31:00.783Z,29.70
2019-01-30T00:32:00.794Z,32.90
2019-01-30T00:33:00.802Z,27.10
2019-01-30T00:34:00.809Z,28.70
2019-01-30T00:35:00.821Z,29.80
2019-01-30T00:36:00.827Z,30.60
2019-01-30T00:37:00.840Z,31.80
2019-01-30T00:38:00.846Z,34.40
2019-01-30T00:39:00.856Z,30.40
2019-01-30T00:40:00.864Z,34.80
2019-01-30T00:41:00.882Z,33.10
2019-01-30T00:42:00.962Z,30.80
2019-01-30T00:43:00.969Z,32.40
2019-01-30T00:44:00.957Z,26.90
2019-01-30T00:45:00.965Z,31.10
2019-01-30T00:46:00.957Z,30.10
2019-01-30T00:47:00.965Z,28.40
2019-01-30T00:48:00.962Z,35.00
2019-01-30T00:49:01.030Z,31.00
2019-01-30T00:50:01.026Z,31.80
2019-01-30T00:51:01.026Z,31.30
2019-01-30T00:52:01.016Z,30.40
2019-01-30T00:53:01.023Z,30.50
2019-01-30T00:54:01.010Z,28.00
2019-01-30T00:55:01.036Z,33.50
2019-01-30T00:56:01.010Z,33.60
2019-01-30T00:57:01.030Z,24.90
2019-01-30T00:58:01.025Z,28.90
2019-01-30T00:59:01.038Z,31.80
2019-01-30T01:00:01.046Z,31.10
2019-01-30T01:01:01.054Z,30.80
2019-01-30T01:02:01.061Z,30.10
2019-01-30T01:03:01.070Z,30.10
2019-01-30T01:04:01.079Z,28.40
2019-01-30T01:05:01.087Z,29.10
2019-01-30T01:06:01.097Z,30.30
2019-01-30T01:07:01.106Z,28.30
2019-01-30T01:08:01.115Z,31.70
2019-01-30T01:09:01.124Z,32.60
2019-01-30T01:10:01.133Z,35.30
2019-01-30T01:11:01.142Z,34.10
2019-01-30T01:12:01.150Z,36.10
2019-01-30T01:13:01.164Z,31.80
2019-01-30T01:14:01.241Z,28.40
2019-01-30T01:15:01.277Z,37.00
2019-01-30T01:16:01.185Z,30.40
2019-01-30T01:17:01.195Z,33.70
2019-01-30T01:18:01.205Z,36.50
2019-01-30T01:19:01.213Z,30.00
2019-01-30T01:20:01.222Z,34.80
2019-01-30T01:21:01.231Z,30.70
2019-01-30T01:22:01.238Z,37.10
2019-01-30T01:23:01.248Z,35.60
2019-01-30T01:24:01.259Z,34.50
2019-01-30T01:25:01.268Z,30.00
2019-01-30T01:26:01.274Z,35.70
2019-01-30T01:27:01.283Z,36.60
2019-01-30T01:28:01.292Z,35.30
2019-01-30T01:29:01.302Z,32.70
2019-01-30T01:30:01.309Z,33.90
2019-01-30T01:31:01.319Z,36.00
2019-01-30T01:32:01.330Z,36.10
2019-01-30T01:33:01.337Z,37.90
2019-01-30T01:34:01.343Z,39.40
2019-01-30T01:35:01.355Z,44.20
2019-01-30T01:36:01.362Z,32.80
2019-01-30T01:37:01.371Z,36.10
2019-01-30T01:38:01.378Z,35.90
2019-01-30T01:39:01.390Z,37.10
2019-01-30T01:40:01.400Z,39.90
2019-01-30T01:41:01.408Z,36.20
2019-01-30T01:42:01.417Z,41.90
2019-01-30T01:43:01.425Z,38.00
2019-01-30T01:44:01.432Z,38.60
2019-01-30T01:45:01.443Z,40.20
2019-01-30T01:46:01.451Z,34.20
2019-01-30T01:47:01.461Z,36.50
2019-01-30T01:48:01.469Z,39.00
2019-01-30T01:49:01.479Z,38.50
2019-01-30T01:50:01.485Z,37.50
2019-01-30T01:51:01.493Z,44.90
2019-01-30T01:52:01.503Z,41.60
2019-01-30T01:53:01.509Z,34.60
2019-01-30T01:54:01.518Z,38.60
2019-01-30T01:55:01.531Z,38.30
2019-01-30T01:56:01.536Z,32.90
2019-01-30T01:57:01.546Z,35.70
2019-01-30T01:58:01.552Z,34.40
2019-01-30T01:59:01.563Z,35.40
2019-01-30T02:00:01.577Z,35.60
2019-01-30T02:01:01.581Z,36.70
2019-01-30T02:02:01.590Z,37.70
2019-01-30T02:03:01.599Z,43.20
2019-01-30T02:04:01.605Z,35.30
2019-01-30T02:05:01.619Z,35.20
2019-01-30T02:06:01.698Z,35.80
2019-01-30T02:07:01.635Z,37.00
2019-01-30T02:08:01.640Z,36.50
2019-01-30T02:09:01.651Z,36.70
2019-01-30T02:10:01.660Z,37.10
2019-01-30T02:11:01.667Z,34.80
2019-01-30T02:12:01.678Z,44.50
2019-01-30T02:13:01.685Z,37.40
2019-01-30T02:14:01.697Z,38.60
2019-01-30T02:15:01.704Z,36.70
2019-01-30T02:16:01.712Z,35.50
2019-01-30T02:17:01.721Z,40.80
2019-01-30T02:18:01.734Z,31.70
2019-01-30T02:19:01.738Z,32.10
2019-01-30T02:20:01.746Z,40.60
2019-01-30T02:21:01.758Z,37.40
2019-01-30T02:22:01.763Z,40.10
2019-01-30T02:23:01.773Z,35.60
2019-01-30T02:24:01.780Z,36.60
2019-01-30T02:25:01.790Z,36.20
2019-01-30T02:26:01.796Z,35.80
2019-01-30T02:27:01.806Z,39.50
2019-01-30T02:28:01.814Z,35.20
2019-01-30T02:29:01.888Z,35.60
2019-01-30T02:30:01.830Z,37.50
2019-01-30T02:31:01.842Z,37.30
2019-01-30T02:32:01.848Z,35.60
2019-01-30T02:33:01.862Z,34.70
2019-01-30T02:34:01.865Z,37.10
2019-01-30T02:35:01.872Z,35.80
2019-01-30T02:36:01.884Z,32.10
2019-01-30T02:37:01.894Z,32.00
2019-01-30T02:38:01.905Z,35.20
2019-01-30T02:39:01.908Z,35.50
2019-01-30T02:40:01.920Z,35.30
2019-01-30T02:41:01.927Z,36.40
2019-01-30T02:42:01.937Z,35.40
2019-01-30T02:43:01.946Z,38.40
2019-01-30T02:44:02.063Z,35.70
2019-01-30T02:45:01.964Z,33.20
2019-01-30T02:46:01.969Z,35.80
2019-01-30T02:47:01.976Z,34.90
2019-01-30T02:48:02.001Z,34.30
2019-01-30T02:49:01.999Z,37.90
2019-01-30T02:50:02.004Z,38.40
2019-01-30T02:51:02.158Z,38.20
2019-01-30T02:52:02.022Z,38.10
2019-01-30T02:53:02.030Z,35.50
2019-01-30T02:54:02.039Z,33.90
2019-01-30T02:55:02.048Z,35.70
2019-01-30T02:56:02.053Z,38.30
2019-01-30T02:57:02.063Z,38.70
2019-01-30T02:58:02.072Z,35.50
2019-01-30T02:59:02.083Z,37.50
2019-01-30T03:00:02.090Z,39.40
2019-01-30T03:01:02.100Z,34.00
2019-01-30T03:02:02.107Z,35.60
2019-01-30T03:03:02.115Z,33.60
2019-01-30T03:04:02.129Z,34.30
2019-01-30T03:05:02.132Z,37.80
2019-01-30T03:06:02.138Z,35.20
2019-01-30T03:07:02.150Z,32.60
2019-01-30T03:08:02.161Z,34.40
2019-01-30T03:09:02.166Z,34.80
2019-01-30T03:10:02.176Z,35.80
2019-01-30T03:11:02.211Z,33.30
2019-01-30T03:12:02.193Z,33.70
2019-01-30T03:13:02.202Z,33.00
2019-01-30T03:14:02.209Z,31.80
2019-01-30T03:15:02.217Z,31.30
2019-01-30T03:16:02.226Z,36.40
2019-01-30T03:17:02.241Z,35.00
2019-01-30T03:18:02.522Z,33.50
2019-01-30T03:19:02.252Z,30.30
2019-01-30T03:20:02.259Z,34.20
2019-01-30T03:21:02.268Z,31.80
2019-01-30T03:22:02.275Z,45.70
2019-01-30T03:23:02.285Z,32.50
2019-01-30T03:24:02.301Z,32.00
2019-01-30T03:25:02.303Z,33.30
2019-01-30T03:26:02.313Z,31.00
2019-01-30T03:27:02.320Z,35.90
2019-01-30T03:28:02.327Z,32.30
2019-01-30T03:29:02.337Z,34.20
2019-01-30T03:30:02.345Z,36.80
2019-01-30T03:31:17.069Z,34.00
2019-01-30T03:32:02.364Z,35.90
2019-01-30T03:33:02.375Z,32.60
2019-01-30T03:34:02.380Z,37.10
2019-01-30T03:35:02.386Z,30.70
2019-01-30T03:36:02.395Z,37.40
2019-01-30T03:37:02.405Z,33.50
2019-01-30T03:38:02.410Z,32.10
2019-01-30T03:39:02.423Z,31.90
2019-01-30T03:40:02.432Z,33.60
2019-01-30T03:41:02.438Z,34.70
2019-01-30T03:42:02.448Z,33.60
2019-01-30T03:43:02.457Z,37.90
2019-01-30T03:44:02.464Z,31.70
2019-01-30T03:45:02.471Z,36.70
2019-01-30T03:46:02.479Z,32.90
2019-01-30T03:47:02.486Z,32.10
2019-01-30T03:48:02.496Z,36.60
2019-01-30T03:49:02.511Z,32.40
2019-01-30T03:50:02.514Z,31.10
2019-01-30T03:51:02.522Z,31.60
2019-01-30T03:52:02.531Z,32.10
2019-01-30T03:53:02.539Z,29.80
2019-01-30T03:54:02.546Z,32.40
2019-01-30T03:55:02.556Z,33.20
2019-01-30T03:56:02.565Z,38.40
2019-01-30T03:57:02.573Z,31.30
2019-01-30T03:58:02.581Z,35.20
2019-01-30T03:59:02.590Z,30.30
2019-01-30T04:00:02.598Z,35.30
2019-01-30T04:01:02.606Z,31.20
2019-01-30T04:02:02.617Z,29.50
2019-01-30T04:03:02.648Z,30.30
2019-01-30T04:04:02.679Z,33.50
2019-01-30T04:05:02.712Z,33.80
2019-01-30T04:06:02.733Z,32.30
2019-01-30T04:07:02.707Z,33.20
2019-01-30T04:08:02.712Z,34.60
2019-01-30T04:09:02.706Z,32.00
2019-01-30T04:10:02.749Z,32.00
2019-01-30T04:11:02.761Z,34.90
2019-01-30T04:12:02.776Z,27.80
2019-01-30T04:13:02.774Z,30.00
2019-01-30T04:14:02.756Z,28.50
2019-01-30T04:15:02.762Z,28.00
2019-01-30T04:16:02.768Z,30.20
2019-01-30T04:17:02.760Z,28.00
2019-01-30T04:18:02.751Z,29.80
2019-01-30T04:19:02.765Z,28.10
2019-01-30T04:20:02.778Z,28.90
2019-01-30T04:21:02.774Z,33.90
2019-01-30T04:22:02.783Z,24.90
2019-01-30T04:23:02.790Z,28.20
2019-01-30T04:24:02.806Z,29.90
2019-01-30T04:25:02.807Z,30.70
2019-01-30T04:26:02.814Z,33.60
2019-01-30T04:27:02.885Z,37.50
2019-01-30T04:28:02.830Z,32.00
2019-01-30T04:29:02.840Z,26.10
2019-01-30T04:30:02.852Z,31.60
2019-01-30T04:31:02.860Z,31.80
2019-01-30T04:32:02.870Z,30.60
2019-01-30T04:33:02.873Z,32.70
2019-01-30T04:34:02.884Z,31.80
2019-01-30T04:35:02.890Z,30.00
2019-01-30T04:36:02.901Z,28.20
2019-01-30T04:37:02.906Z,27.50
2019-01-30T04:38:02.926Z,31.60
2019-01-30T04:39:02.923Z,28.90
2019-01-30T04:40:02.931Z,31.20
2019-01-30T04:41:02.947Z,29.20
2019-01-30T04:42:02.953Z,29.30
2019-01-30T04:43:02.956Z,30.30
2019-01-30T04:44:02.965Z,28.00
2019-01-30T04:45:02.977Z,30.10
2019-01-30T04:46:02.979Z,27.10
2019-01-30T04:47:02.992Z,30.10
2019-01-30T04:48:03.008Z,29.90
2019-01-30T04:49:03.006Z,26.60
2019-01-30T04:50:03.017Z,24.20
2019-01-30T04:51:03.028Z,29.10
2019-01-30T04:52:03.030Z,24.70
2019-01-30T04:53:03.040Z,25.10
2019-01-30T04:54:03.046Z,29.20
2019-01-30T04:55:03.056Z,30.60
2019-01-30T04:56:03.065Z,29.40
2019-01-30T04:57:03.073Z,28.00
2019-01-30T04:58:03.079Z,26.80
2019-01-30T04:59:03.089Z,28.90
2019-01-30T05:00:03.098Z,28.40
2019-01-30T05:01:03.104Z,31.60
2019-01-30T05:02:03.114Z,26.60
2019-01-30T05:03:03.119Z,23.20
2019-01-30T05:04:03.130Z,26.80
2019-01-30T05:05:03.138Z,27.20
2019-01-30T05:06:03.146Z,30.00
2019-01-30T05:07:03.153Z,26.70
2019-01-30T05:08:03.183Z,27.30
2019-01-30T05:09:03.172Z,28.70
2019-01-30T05:10:03.179Z,24.50
2019-01-30T05:11:03.193Z,30.20
2019-01-30T05:12:03.198Z,28.70
2019-01-30T05:13:03.203Z,26.30
2019-01-30T05:14:03.213Z,28.90
2019-01-30T05:15:03.224Z,26.80
2019-01-30T05:16:03.229Z,29.50
2019-01-30T05:17:03.235Z,32.30
2019-01-30T05:18:03.244Z,29.40
2019-01-30T05:19:03.252Z,26.60
2019-01-30T05:20:03.264Z,26.90
2019-01-30T05:21:03.273Z,27.00
2019-01-30T05:22:03.301Z,29.60
2019-01-30T05:23:03.286Z,32.50
2019-01-30T05:24:03.298Z,26.00
2019-01-30T05:25:03.301Z,23.00
2019-01-30T05:26:03.310Z,26.40
2019-01-30T05:27:03.318Z,27.90
2019-01-30T05:28:03.325Z,26.00
2019-01-30T05:29:03.334Z,24.90
2019-01-30T05:30:03.342Z,28.50
2019-01-30T05:31:03.350Z,28.10
2019-01-30T05:32:03.359Z,20.90
2019-01-30T05:33:03.368Z,31.10
2019-01-30T05:34:03.374Z,28.20
2019-01-30T05:35:03.384Z,30.00
2019-01-30T05:36:03.393Z,27.00
2019-01-30T05:37:03.405Z,30.60
2019-01-30T05:38:03.414Z,29.90
2019-01-30T05:39:03.418Z,26.00
2019-01-30T05:40:03.424Z,27.00
2019-01-30T05:41:03.434Z,27.20
2019-01-30T05:42:03.440Z,29.60
2019-01-30T05:43:03.448Z,29.40
2019-01-30T05:44:03.454Z,27.90
2019-01-30T05:45:03.467Z,29.10
2019-01-30T05:46:03.473Z,26.90
2019-01-30T05:47:03.482Z,28.10
2019-01-30T05:48:03.492Z,25.00
2019-01-30T05:49:03.500Z,24.80
2019-01-30T05:50:03.506Z,28.80
2019-01-30T05:51:03.514Z,25.60
2019-01-30T05:52:03.521Z,24.30
2019-01-30T05:53:03.530Z,26.60
2019-01-30T05:54:03.538Z,26.00
2019-01-30T05:55:03.549Z,23.10
2019-01-30T05:56:03.560Z,25.70
2019-01-30T05:57:03.565Z,27.30
2019-01-30T05:58:03.571Z,26.30
2019-01-30T05:59:03.584Z,29.60
2019-01-30T06:00:03.586Z,24.80
2019-01-30T06:01:03.597Z,27.20
2019-01-30T06:02:11.780Z,22.40
2019-01-30T06:03:03.613Z,30.70
2019-01-30T06:04:03.619Z,30.50
2019-01-30T06:05:03.628Z,30.10
2019-01-30T06:06:03.636Z,30.40
2019-01-30T06:07:03.645Z,26.50
2019-01-30T06:08:03.659Z,27.70
2019-01-30T06:09:03.661Z,27.30
2019-01-30T06:10:03.670Z,25.10
2019-01-30T06:11:03.689Z,28.20
2019-01-30T06:12:03.687Z,31.80
2019-01-30T06:13:03.693Z,29.80
2019-01-30T06:14:03.699Z,30.80
2019-01-30T06:15:03.709Z,27.70
2019-01-30T06:16:03.722Z,24.80
2019-01-30T06:17:03.728Z,28.30
2019-01-30T06:18:03.733Z,24.70
2019-01-30T06:19:03.743Z,29.60
2019-01-30T06:20:03.751Z,29.40
2019-01-30T06:21:03.760Z,26.20
2019-01-30T06:22:03.768Z,25.20
2019-01-30T06:23:03.777Z,28.60
2019-01-30T06:24:03.785Z,26.60
2019-01-30T06:25:03.793Z,26.30
2019-01-30T06:26:03.801Z,27.00
2019-01-30T06:27:03.808Z,26.80
2019-01-30T06:28:03.817Z,26.90
2019-01-30T06:29:03.824Z,27.50
2019-01-30T06:30:03.832Z,27.30
2019-01-30T06:31:03.840Z,27.00
2019-01-30T06:32:03.849Z,25.00
2019-01-30T06:33:03.862Z,26.60
2019-01-30T06:34:03.988Z,31.40
2019-01-30T06:35:03.877Z,24.00
2019-01-30T06:36:03.879Z,23.70
2019-01-30T06:37:03.892Z,25.70
2019-01-30T06:38:03.896Z,25.00
2019-01-30T06:39:03.908Z,24.20
2019-01-30T06:40:03.915Z,22.00
2019-01-30T06:41:03.922Z,27.00
2019-01-30T06:42:03.929Z,24.30
2019-01-30T06:43:03.940Z,30.10
2019-01-30T06:44:03.947Z,25.40
2019-01-30T06:45:03.954Z,26.20
2019-01-30T06:46:03.962Z,28.30
2019-01-30T06:47:03.971Z,25.10
2019-01-30T06:48:03.982Z,25.00
2019-01-30T06:49:03.988Z,24.80
2019-01-30T06:50:03.996Z,24.00
2019-01-30T06:51:04.003Z,26.70
2019-01-30T06:52:04.012Z,26.10
2019-01-30T06:53:04.019Z,26.00
2019-01-30T06:54:04.028Z,26.70
2019-01-30T06:55:04.036Z,27.00
2019-01-30T06:56:04.046Z,28.10
2019-01-30T06:57:04.053Z,25.10
2019-01-30T06:58:04.059Z,28.80
2019-01-30T06:59:04.069Z,22.30
2019-01-30T07:00:04.079Z,29.70
2019-01-30T07:01:04.084Z,29.40
2019-01-30T07:02:04.094Z,30.40
2019-01-30T07:03:04.102Z,22.90
2019-01-30T07:04:04.111Z,26.60
2019-01-30T07:05:04.119Z,26.20
2019-01-30T07:06:04.129Z,25.00
2019-01-30T07:07:04.133Z,24.10
2019-01-30T07:08:04.140Z,25.50
2019-01-30T07:09:04.152Z,24.40
2019-01-30T07:10:04.156Z,30.70
2019-01-30T07:11:10.463Z,23.30
2019-01-30T07:12:04.176Z,24.50
2019-01-30T07:13:04.185Z,27.30
2019-01-30T07:14:04.191Z,28.00
2019-01-30T07:15:04.200Z,25.00
2019-01-30T07:16:04.210Z,26.70
2019-01-30T07:17:04.215Z,26.60
2019-01-30T07:18:04.224Z,27.60
2019-01-30T07:19:04.231Z,24.80
2019-01-30T07:20:04.240Z,20.00
2019-01-30T07:21:04.251Z,21.40
2019-01-30T07:22:04.257Z,25.60
2019-01-30T07:23:04.266Z,23.20
2019-01-30T07:24:04.278Z,26.80
2019-01-30T07:25:04.285Z,20.40
2019-01-30T07:26:04.290Z,22.10
2019-01-30T07:27:04.297Z,25.50
2019-01-30T07:28:04.308Z,23.10
2019-01-30T07:29:04.319Z,23.50
2019-01-30T07:30:04.326Z,27.20
2019-01-30T07:31:04.335Z,20.40
2019-01-30T07:32:04.344Z,27.40
2019-01-30T07:33:04.357Z,23.60
2019-01-30T07:34:04.387Z,21.40
2019-01-30T07:35:04.432Z,23.40
2019-01-30T07:36:04.434Z,21.40
2019-01-30T07:37:04.456Z,22.40
2019-01-30T07:38:04.443Z,24.10
2019-01-30T07:39:04.427Z,23.10
2019-01-30T07:40:04.436Z,24.60
2019-01-30T07:41:04.495Z,24.00
2019-01-30T07:42:04.495Z,22.00
2019-01-30T07:43:04.486Z,20.50
2019-01-30T07:44:04.502Z,19.20
2019-01-30T07:45:04.506Z,25.10
2019-01-30T07:46:04.495Z,24.20
2019-01-30T07:47:04.494Z,25.50
2019-01-30T07:48:04.498Z,20.10
2019-01-30T07:49:04.488Z,23.00
2019-01-30T07:50:04.496Z,24.60
2019-01-30T07:51:04.500Z,23.00
2019-01-30T07:52:04.510Z,22.60
2019-01-30T07:53:04.518Z,20.80
2019-01-30T07:54:04.528Z,25.70
2019-01-30T07:55:04.536Z,20.20
2019-01-30T07:56:04.544Z,24.80
2019-01-30T07:57:04.554Z,23.10
2019-01-30T07:58:05.902Z,22.20
2019-01-30T07:59:04.570Z,18.50
2019-01-30T08:00:04.582Z,24.30
2019-01-30T08:01:04.589Z,21.70
2019-01-30T08:02:04.596Z,21.90
2019-01-30T08:03:04.606Z,21.70
2019-01-30T08:04:04.613Z,23.90
2019-01-30T08:05:04.624Z,25.70
2019-01-30T08:06:04.633Z,20.80
2019-01-30T08:07:04.642Z,21.90
2019-01-30T08:08:04.651Z,24.00
2019-01-30T08:09:04.659Z,21.70
2019-01-30T08:10:04.669Z,23.00
2019-01-30T08:11:07.170Z,24.20
2019-01-30T08:12:04.687Z,22.00
2019-01-30T08:13:04.696Z,22.20
2019-01-30T08:14:04.703Z,18.80
2019-01-30T08:15:04.712Z,21.30
2019-01-30T08:16:04.722Z,24.40
2019-01-30T08:17:04.856Z,24.40
2019-01-30T08:18:04.741Z,21.60
2019-01-30T08:19:04.753Z,20.40
2019-01-30T08:20:04.855Z,21.70
2019-01-30T08:21:04.768Z,22.80
2019-01-30T08:22:04.776Z,21.30
2019-01-30T08:23:05.187Z,22.70
2019-01-30T08:24:04.984Z,24.10
2019-01-30T08:25:05.035Z,21.50
2019-01-30T08:26:04.990Z,22.30
2019-01-30T08:27:05.087Z,21.30
2019-01-30T08:28:05.253Z,21.80
2019-01-30T08:29:05.231Z,25.80
2019-01-30T08:30:05.055Z,24.90
2019-01-30T08:31:04.906Z,26.50
2019-01-30T08:32:05.027Z,21.90
2019-01-30T08:33:05.913Z,27.30
2019-01-30T08:34:04.890Z,22.70
2019-01-30T08:35:04.898Z,22.60
2019-01-30T08:36:04.906Z,24.40
2019-01-30T08:37:04.917Z,23.80
2019-01-30T08:38:04.924Z,26.30
2019-01-30T08:39:04.936Z,23.70
2019-01-30T08:40:04.945Z,25.80
2019-01-30T08:41:04.956Z,26.00
2019-01-30T08:42:04.968Z,20.90
2019-01-30T08:43:04.975Z,26.60
2019-01-30T08:44:04.983Z,26.60
2019-01-30T08:45:04.995Z,24.90
2019-01-30T08:46:05.000Z,23.50
2019-01-30T08:47:05.013Z,23.00
2019-01-30T08:48:05.022Z,24.40
2019-01-30T08:49:05.034Z,22.90
2019-01-30T08:50:05.040Z,22.10
2019-01-30T08:51:05.050Z,23.40
2019-01-30T08:52:05.060Z,23.70
2019-01-30T08:53:05.070Z,23.10
2019-01-30T08:54:05.078Z,20.10
2019-01-30T08:55:05.095Z,22.60
2019-01-30T08:56:05.098Z,28.30
2019-01-30T08:57:05.108Z,22.70
2019-01-30T08:58:05.119Z,23.70
2019-01-30T08:59:05.885Z,23.30
2019-01-30T09:00:05.144Z,20.30
2019-01-30T09:01:05.148Z,21.20
2019-01-30T09:02:05.159Z,24.40
2019-01-30T09:03:14.195Z,26.50
2019-01-30T09:04:05.178Z,21.80
2019-01-30T09:05:05.184Z,20.60
2019-01-30T09:06:05.196Z,23.00
2019-01-30T09:07:05.208Z,21.20
2019-01-30T09:08:05.218Z,21.80
2019-01-30T09:09:05.228Z,22.60
2019-01-30T09:10:05.238Z,20.30
2019-01-30T09:11:05.246Z,21.50
2019-01-30T09:12:05.258Z,17.70
2019-01-30T09:13:05.275Z,19.10
2019-01-30T09:14:05.275Z,19.60
2019-01-30T09:15:05.285Z,21.20
2019-01-30T09:16:05.296Z,20.70
2019-01-30T09:17:08.249Z,21.60
2019-01-30T09:18:05.316Z,20.30
2019-01-30T09:19:05.326Z,19.20
2019-01-30T09:20:05.337Z,19.30
2019-01-30T09:21:05.345Z,16.10
2019-01-30T09:22:05.356Z,17.30
2019-01-30T09:23:05.367Z,16.90
2019-01-30T09:24:05.377Z,18.50
2019-01-30T09:25:05.387Z,15.60
2019-01-30T09:26:05.395Z,17.30
2019-01-30T09:27:05.405Z,19.20
2019-01-30T09:28:05.418Z,17.70
2019-01-30T09:29:05.428Z,17.60
2019-01-30T09:30:05.437Z,19.40
2019-01-30T09:31:05.446Z,17.70
2019-01-30T09:32:05.465Z,17.70
2019-01-30T09:33:05.489Z,19.00
2019-01-30T09:34:05.479Z,16.80
2019-01-30T09:35:05.489Z,19.80
2019-01-30T09:36:05.499Z,18.30
2019-01-30T09:37:05.518Z,22.00
2019-01-30T09:38:05.522Z,20.30
2019-01-30T09:39:05.532Z,19.60
2019-01-30T09:40:05.539Z,21.50
2019-01-30T09:41:05.550Z,19.60
2019-01-30T09:42:05.557Z,21.10
2019-01-30T09:43:05.573Z,21.90
2019-01-30T09:44:05.578Z,17.40
2019-01-30T09:45:05.626Z,20.80
2019-01-30T09:46:05.598Z,18.80
2019-01-30T09:47:05.647Z,22.70
2019-01-30T09:48:05.621Z,23.50
2019-01-30T09:49:05.656Z,23.00
2019-01-30T09:50:05.638Z,20.10
2019-01-30T09:51:05.652Z,18.00
2019-01-30T09:52:05.664Z,18.10
2019-01-30T09:53:05.673Z,20.90
2019-01-30T09:54:05.682Z,18.80
2019-01-30T09:55:05.705Z,17.50
2019-01-30T09:56:05.703Z,19.60
2019-01-30T09:57:05.712Z,22.70
2019-01-30T09:58:05.723Z,19.30
2019-01-30T09:59:05.732Z,20.20
2019-01-30T10:00:05.741Z,19.90
2019-01-30T10:01:05.754Z,18.40
2019-01-30T10:02:05.764Z,21.60
2019-01-30T10:03:05.774Z,20.40
2019-01-30T10:04:05.785Z,22.10
2019-01-30T10:05:05.806Z,22.90
2019-01-30T10:06:05.805Z,15.20
2019-01-30T10:07:05.816Z,20.40
2019-01-30T10:08:05.827Z,17.40
2019-01-30T10:09:05.836Z,18.80
2019-01-30T10:10:05.848Z,23.60
2019-01-30T10:11:05.879Z,23.60
2019-01-30T10:12:05.868Z,20.60
2019-01-30T10:13:05.879Z,19.20
2019-01-30T10:14:05.889Z,18.80
2019-01-30T10:15:05.899Z,18.70
2019-01-30T10:16:05.909Z,19.30
2019-01-30T10:17:05.923Z,18.50
2019-01-30T10:18:05.931Z,17.00
2019-01-30T10:19:05.941Z,22.60
2019-01-30T10:20:05.950Z,16.80
2019-01-30T10:21:06.066Z,19.00
2019-01-30T10:22:05.971Z,18.80
2019-01-30T10:23:05.981Z,18.20
2019-01-30T10:24:06.007Z,19.60
2019-01-30T10:25:06.008Z,19.80
2019-01-30T10:26:06.017Z,17.80
2019-01-30T10:27:06.023Z,17.90
2019-01-30T10:28:15.906Z,19.00
2019-01-30T10:29:06.046Z,21.70
2019-01-30T10:30:06.055Z,21.90
2019-01-30T10:31:06.070Z,17.30
2019-01-30T10:32:06.078Z,14.80
2019-01-30T10:33:06.091Z,14.60
2019-01-30T10:34:06.100Z,19.10
2019-01-30T10:35:06.108Z,17.40
2019-01-30T10:36:06.136Z,17.30
2019-01-30T10:37:06.260Z,17.80
2019-01-30T10:38:06.293Z,18.30
2019-01-30T10:39:06.231Z,21.10
2019-01-30T10:40:06.197Z,17.70
2019-01-30T10:41:06.222Z,19.50
2019-01-30T10:42:06.243Z,21.80
2019-01-30T10:43:06.267Z,17.20
2019-01-30T10:44:06.264Z,15.90
2019-01-30T10:45:06.265Z,14.70
2019-01-30T10:46:06.264Z,17.70
2019-01-30T10:47:06.257Z,15.80
2019-01-30T10:48:06.259Z,14.90
2019-01-30T10:49:06.261Z,17.80
2019-01-30T10:50:06.263Z,15.80
2019-01-30T10:51:07.443Z,17.30
2019-01-30T10:52:06.290Z,16.40
2019-01-30T10:53:06.298Z,14.90
2019-01-30T10:54:06.310Z,14.60
2019-01-30T10:55:06.321Z,16.90
2019-01-30T10:56:06.332Z,15.00
2019-01-30T10:57:06.342Z,14.10
2019-01-30T10:58:06.350Z,15.00
2019-01-30T10:59:06.360Z,15.50
2019-01-30T11:00:06.376Z,17.10
2019-01-30T11:01:06.384Z,14.50
2019-01-30T11:02:06.394Z,16.00
2019-01-30T11:03:06.405Z,15.60
2019-01-30T11:04:06.415Z,13.70
2019-01-30T11:05:06.426Z,12.10
2019-01-30T11:06:06.436Z,12.60
2019-01-30T11:07:06.450Z,14.90
2019-01-30T11:08:06.459Z,13.90
2019-01-30T11:09:06.469Z,12.20
2019-01-30T11:10:06.483Z,13.00
2019-01-30T11:11:08.121Z,14.60
2019-01-30T11:12:06.503Z,15.10
2019-01-30T11:13:06.525Z,13.70
2019-01-30T11:14:06.525Z,15.60
2019-01-30T11:15:06.537Z,16.60
2019-01-30T11:16:06.549Z,14.00
2019-01-30T11:17:08.635Z,13.60
2019-01-30T11:18:06.566Z,13.00
2019-01-30T11:19:06.580Z,13.40
2019-01-30T11:20:06.591Z,13.80
2019-01-30T11:21:06.604Z,13.90
2019-01-30T11:22:06.620Z,13.50
2019-01-30T11:23:06.621Z,13.20
2019-01-30T11:24:06.633Z,12.10
2019-01-30T11:25:06.650Z,13.50
2019-01-30T11:26:06.656Z,13.60
2019-01-30T11:27:06.665Z,11.50
2019-01-30T11:28:06.677Z,14.40
2019-01-30T11:29:06.690Z,15.20
2019-01-30T11:30:06.715Z,13.40
2019-01-30T11:31:06.711Z,14.50
2019-01-30T11:32:06.721Z,16.00
2019-01-30T11:33:06.734Z,13.30
2019-01-30T11:34:07.446Z,13.30
2019-01-30T11:35:06.872Z,13.50
2019-01-30T11:36:06.765Z,14.30
2019-01-30T11:37:06.776Z,13.40
2019-01-30T11:38:08.822Z,12.10
2019-01-30T11:39:06.800Z,13.10
2019-01-30T11:40:06.812Z,14.60
2019-01-30T11:41:06.822Z,14.30
2019-01-30T11:42:06.833Z,14.90
2019-01-30T11:43:06.936Z,10.20
2019-01-30T11:44:06.854Z,12.00
2019-01-30T11:45:06.871Z,18.50
2019-01-30T11:46:06.879Z,22.00
2019-01-30T11:47:06.890Z,14.30
2019-01-30T11:48:06.901Z,13.20
2019-01-30T11:49:06.912Z,12.80
2019-01-30T11:50:06.924Z,11.40
2019-01-30T11:51:06.935Z,14.50
2019-01-30T11:52:06.946Z,13.80
2019-01-30T11:53:06.957Z,12.90
2019-01-30T11:54:06.975Z,11.90
2019-01-30T11:55:06.983Z,13.20
2019-01-30T11:56:06.996Z,14.00
2019-01-30T11:57:07.005Z,12.20
2019-01-30T11:58:07.015Z,12.00
2019-01-30T11:59:07.025Z,14.40
2019-01-30T12:00:07.039Z,14.50
2019-01-30T12:01:07.051Z,13.90
2019-01-30T12:02:07.060Z,14.00
2019-01-30T12:03:07.078Z,9.70
2019-01-30T12:04:17.413Z,14.20
2019-01-30T12:05:07.097Z,14.90
2019-01-30T12:06:07.110Z,14.60
2019-01-30T12:07:07.122Z,11.80
2019-01-30T12:08:07.129Z,15.20
2019-01-30T12:09:07.141Z,13.50
2019-01-30T12:10:07.156Z,13.20
2019-01-30T12:11:07.166Z,15.20
2019-01-30T12:12:07.177Z,13.10
2019-01-30T12:13:07.189Z,12.80
2019-01-30T12:14:07.201Z,14.60
2019-01-30T12:15:07.211Z,14.60
2019-01-30T12:16:07.225Z,13.80
2019-01-30T12:17:07.236Z,16.20
2019-01-30T12:18:07.246Z,15.60
2019-01-30T12:19:07.258Z,17.00
2019-01-30T12:20:07.366Z,14.70
2019-01-30T12:21:07.282Z,15.20
2019-01-30T12:22:07.293Z,15.10
2019-01-30T12:23:07.305Z,13.20
2019-01-30T12:24:07.318Z,13.30
2019-01-30T12:25:07.329Z,15.90
2019-01-30T12:26:07.340Z,14.80
2019-01-30T12:27:07.356Z,14.60
2019-01-30T12:28:07.366Z,15.90
2019-01-30T12:29:07.376Z,12.60
2019-01-30T12:30:07.385Z,14.70
2019-01-30T12:31:07.399Z,15.40
2019-01-30T12:32:07.410Z,17.30
2019-01-30T12:33:07.423Z,17.50
2019-01-30T12:34:07.435Z,13.80
2019-01-30T12:35:07.445Z,13.80
2019-01-30T12:36:07.458Z,15.00
2019-01-30T12:37:07.472Z,14.70
2019-01-30T12:38:07.480Z,15.50
2019-01-30T12:39:07.490Z,15.80
2019-01-30T12:40:07.503Z,18.40
2019-01-30T12:41:07.516Z,16.00
2019-01-30T12:42:07.529Z,14.90
2019-01-30T12:43:07.540Z,16.50
2019-01-30T12:44:07.551Z,19.10
2019-01-30T12:45:07.564Z,13.80
2019-01-30T12:46:07.574Z,16.20
2019-01-30T12:47:07.586Z,16.00
2019-01-30T12:48:07.609Z,17.90
2019-01-30T12:49:07.609Z,14.50
2019-01-30T12:50:07.635Z,16.50
2019-01-30T12:51:07.631Z,15.30
2019-01-30T12:52:07.646Z,13.60